createdAt,value
2023-04-09T00:01:36.689Z,10.15
2023-04-09T00:04:04.613Z,10.82
2023-04-09T00:06:32.325Z,10.65
2023-04-09T00:08:59.795Z,12.48
2023-04-09T00:11:27.488Z,12.65
2023-04-09T00:13:55.338Z,16.77
2023-04-09T00:16:22.929Z,11.82
2023-04-09T00:18:50.969Z,13.13
2023-04-09T00:21:18.671Z,13.20
2023-04-09T00:23:46.204Z,14.07
2023-04-09T00:26:13.771Z,10.40
2023-04-09T00:28:42.391Z,12.18
2023-04-09T00:31:10.830Z,11.80
2023-04-09T00:33:38.427Z,12.10
2023-04-09T00:36:06.239Z,14.27
2023-04-09T00:38:33.929Z,11.27
2023-04-09T00:41:01.590Z,12.98
2023-04-09T00:43:29.389Z,10.68
2023-04-09T00:45:58.275Z,12.52
2023-04-09T00:48:26.049Z,13.93
2023-04-09T00:50:53.779Z,13.45
2023-04-09T00:53:21.554Z,12.70
2023-04-09T00:55:49.511Z,13.27
2023-04-09T00:58:17.222Z,14.05
2023-04-09T01:00:44.881Z,11.88
2023-04-09T01:03:12.846Z,13.82
2023-04-09T01:06:04.552Z,11.93
2023-04-09T01:08:56.099Z,11.88
2023-04-09T01:11:40.396Z,14.73
2023-04-09T01:14:41.825Z,12.63
2023-04-09T01:17:26.968Z,16.35
2023-04-09T01:20:11.934Z,13.10
2023-04-09T01:22:48.573Z,12.52
2023-04-09T01:25:48.725Z,13.13
2023-04-09T01:28:20.762Z,14.75
2023-04-09T01:30:53.840Z,12.40
2023-04-09T01:33:22.760Z,12.27
2023-04-09T01:35:51.950Z,11.90
2023-04-09T01:38:21.884Z,12.48
2023-04-09T01:40:50.947Z,20.25
2023-04-09T01:43:20.105Z,14.07
2023-04-09T01:45:49.237Z,17.75
2023-04-09T01:48:17.376Z,15.33
2023-04-09T01:50:45.582Z,17.00
2023-04-09T01:53:13.508Z,15.95
2023-04-09T01:55:41.164Z,16.55
2023-04-09T01:58:08.671Z,14.52
2023-04-09T02:00:39.821Z,18.33
2023-04-09T02:03:18.227Z,16.35
2023-04-09T02:05:56.605Z,15.95
2023-04-09T02:08:25.399Z,15.60
2023-04-09T02:10:58.632Z,15.30
2023-04-09T02:13:27.301Z,17.95
2023-04-09T02:15:58.559Z,17.25
2023-04-09T02:18:28.599Z,18.20
2023-04-09T02:23:27.570Z,16.25
2023-04-09T02:25:55.294Z,18.85
2023-04-09T02:28:22.916Z,19.50
2023-04-09T02:30:52.418Z,16.15
2023-04-09T02:33:20.009Z,16.75
2023-04-09T02:35:47.529Z,20.80
2023-04-09T02:38:16.051Z,17.45
2023-04-09T02:40:43.692Z,17.63
2023-04-09T02:43:11.321Z,16.00
2023-04-09T02:45:39.226Z,16.23
2023-04-09T02:48:06.964Z,15.82
2023-04-09T02:50:36.282Z,18.48
2023-04-09T02:53:04.121Z,20.20
2023-04-09T02:55:31.818Z,15.43
2023-04-09T02:57:59.371Z,16.83
2023-04-09T03:00:26.944Z,19.45
2023-04-09T03:02:55.927Z,18.75
2023-04-09T03:05:23.905Z,15.00
2023-04-09T03:07:51.827Z,17.02
2023-04-09T03:10:19.483Z,22.27
2023-04-09T03:12:47.961Z,18.05
2023-04-09T03:15:15.468Z,19.50
2023-04-09T03:17:43.048Z,22.02
2023-04-09T03:20:13.321Z,20.55
2023-04-09T03:22:43.111Z,16.67
2023-04-09T03:25:28.739Z,17.58
2023-04-09T03:27:56.816Z,17.98
2023-04-09T03:30:38.472Z,21.02
2023-04-09T03:33:07.220Z,19.70
2023-04-09T03:35:44.476Z,20.75
2023-04-09T03:38:13.263Z,21.95
2023-04-09T03:40:42.638Z,24.23
2023-04-09T03:43:10.285Z,22.90
2023-04-09T03:45:39.907Z,18.65
2023-04-09T03:48:28.710Z,22.67
2023-04-09T03:50:58.306Z,20.08
2023-04-09T03:53:34.220Z,22.80
2023-04-09T03:56:06.173Z,21.27
2023-04-09T03:58:35.589Z,24.40
2023-04-09T04:01:03.750Z,24.38
2023-04-09T04:03:50.506Z,19.63
2023-04-09T04:06:26.143Z,23.25
2023-04-09T04:09:19.903Z,22.92
2023-04-09T04:11:54.009Z,21.90
2023-04-09T04:14:23.676Z,24.20
2023-04-09T04:16:57.671Z,27.70
2023-04-09T04:19:31.120Z,22.45
2023-04-09T04:21:59.659Z,28.17
2023-04-09T04:24:27.305Z,22.50
2023-04-09T04:26:56.052Z,29.85
2023-04-09T04:29:28.530Z,21.95
2023-04-09T04:31:59.654Z,21.75
2023-04-09T04:34:32.841Z,21.45
2023-04-09T04:37:06.981Z,25.77
2023-04-09T04:39:35.077Z,26.65
2023-04-09T04:42:10.583Z,24.42
2023-04-09T04:44:38.692Z,26.90
2023-04-09T04:47:22.395Z,27.17
2023-04-09T04:49:50.004Z,23.67
2023-04-09T04:52:18.017Z,28.65
2023-04-09T04:54:50.586Z,25.05
2023-04-09T04:57:25.359Z,27.55
2023-04-09T04:59:54.352Z,27.95
2023-04-09T05:02:25.180Z,31.70
2023-04-09T05:05:17.851Z,32.03
2023-04-09T05:07:51.824Z,37.30
2023-04-09T05:10:24.005Z,32.80
2023-04-09T05:13:00.810Z,27.05
2023-04-09T05:15:57.365Z,30.90
2023-04-09T05:18:25.035Z,28.27
2023-04-09T05:20:52.549Z,30.83
2023-04-09T05:23:20.389Z,26.20
2023-04-09T05:28:35.127Z,32.17
2023-04-09T05:31:13.127Z,30.95
2023-04-09T05:33:46.700Z,41.03
2023-04-09T05:36:20.451Z,31.60
2023-04-09T05:38:48.530Z,34.08
2023-04-09T05:41:16.181Z,41.75
2023-04-09T05:44:03.094Z,36.78
2023-04-09T05:46:31.610Z,45.85
2023-04-09T05:49:00.671Z,46.70
2023-04-09T05:51:29.626Z,42.80
2023-04-09T05:53:59.377Z,45.95
2023-04-09T05:56:34.654Z,45.88
2023-04-09T05:59:02.600Z,47.72
2023-04-09T06:01:30.324Z,47.95
2023-04-09T06:03:58.756Z,45.75
2023-04-09T06:06:29.964Z,46.15
2023-04-09T06:08:59.332Z,40.08
2023-04-09T06:11:27.103Z,44.38
2023-04-09T06:13:54.682Z,48.97
2023-04-09T06:16:22.224Z,49.17
2023-04-09T06:18:50.980Z,44.50
2023-04-09T06:21:18.493Z,41.55
2023-04-09T06:23:46.291Z,44.20
2023-04-09T06:26:16.783Z,46.33
2023-04-09T06:28:44.596Z,46.88
2023-04-09T06:31:14.615Z,40.42
2023-04-09T06:33:43.384Z,42.50
2023-04-09T06:36:11.343Z,45.72
2023-04-09T06:38:38.868Z,42.38
2023-04-09T06:41:08.589Z,44.28
2023-04-09T06:43:37.457Z,36.75
2023-04-09T06:46:05.127Z,48.78
2023-04-09T06:48:32.743Z,43.30
2023-04-09T06:51:00.928Z,45.83
2023-04-09T06:53:28.617Z,51.08
2023-04-09T06:55:57.204Z,53.95
2023-04-09T06:58:24.862Z,46.08
2023-04-09T07:00:52.349Z,40.38
2023-04-09T07:03:20.518Z,44.75
2023-04-09T07:05:49.255Z,46.30
2023-04-09T07:08:17.106Z,36.65
2023-04-09T07:10:44.675Z,45.47
2023-04-09T07:13:13.486Z,41.17
2023-04-09T07:15:42.480Z,46.75
2023-04-09T07:18:11.591Z,44.88
2023-04-09T07:20:39.463Z,47.10
2023-04-09T07:23:07.038Z,47.08
2023-04-09T07:25:34.609Z,39.10
2023-04-09T07:28:02.385Z,44.70
2023-04-09T07:30:29.958Z,44.13
2023-04-09T07:32:57.932Z,35.13
2023-04-09T07:35:25.532Z,46.10
2023-04-09T07:37:53.278Z,38.75
2023-04-09T07:40:20.798Z,36.67
2023-04-09T07:42:48.601Z,31.55
2023-04-09T07:45:17.169Z,35.28
2023-04-09T07:47:45.339Z,30.58
2023-04-09T07:50:12.975Z,31.20
2023-04-09T07:52:42.042Z,39.20
2023-04-09T07:55:09.700Z,30.23
2023-04-09T07:57:37.622Z,36.60
2023-04-09T08:00:05.921Z,35.75
2023-04-09T08:02:49.816Z,32.17
2023-04-09T08:05:17.555Z,37.10
2023-04-09T08:07:45.328Z,38.03
2023-04-09T08:10:15.232Z,34.25
2023-04-09T08:12:43.051Z,35.17
2023-04-09T08:15:11.029Z,39.05
2023-04-09T08:17:38.726Z,42.08
2023-04-09T08:20:09.074Z,40.92
2023-04-09T08:22:36.832Z,43.25
2023-04-09T08:25:04.627Z,45.47
2023-04-09T08:27:33.192Z,43.80
2023-04-09T08:30:00.811Z,48.30
2023-04-09T08:32:28.548Z,51.03
2023-04-09T08:34:56.376Z,46.10
2023-04-09T08:37:23.964Z,42.45
2023-04-09T08:39:52.053Z,45.60
2023-04-09T08:42:21.032Z,48.60
2023-04-09T08:44:48.527Z,41.50
2023-04-09T08:47:16.478Z,40.35
2023-04-09T08:49:44.486Z,43.95
2023-04-09T08:52:11.930Z,42.53
2023-04-09T08:54:39.787Z,41.50
2023-04-09T08:57:07.626Z,42.83
2023-04-09T08:59:37.263Z,45.03
2023-04-09T09:02:11.871Z,44.63
2023-04-09T09:04:46.685Z,46.05
2023-04-09T09:07:15.710Z,42.92
2023-04-09T09:10:09.828Z,44.17
2023-04-09T09:12:41.274Z,36.72
2023-04-09T09:15:28.248Z,35.88
2023-04-09T09:18:00.588Z,41.53
2023-04-09T09:20:28.851Z,38.45
2023-04-09T09:22:57.114Z,42.22
2023-04-09T09:25:26.055Z,37.63
2023-04-09T09:27:54.898Z,37.63
2023-04-09T09:30:27.503Z,36.97
2023-04-09T09:33:05.061Z,29.20
2023-04-09T09:35:50.896Z,37.33
2023-04-09T09:38:18.519Z,37.63
2023-04-09T09:40:46.544Z,32.50
2023-04-09T09:43:15.498Z,33.17
2023-04-09T09:45:44.225Z,33.38
2023-04-09T09:48:12.895Z,34.70
2023-04-09T09:50:44.451Z,39.20
2023-04-09T09:53:13.397Z,33.78
2023-04-09T09:55:44.891Z,36.33
2023-04-09T09:58:31.514Z,36.05
2023-04-09T10:01:01.225Z,34.50
2023-04-09T10:03:32.191Z,34.20
2023-04-09T10:06:02.945Z,27.90
2023-04-09T10:08:34.117Z,31.80
2023-04-09T10:11:02.744Z,29.80
2023-04-09T10:13:38.808Z,33.30
2023-04-09T10:16:08.378Z,33.17
2023-04-09T10:18:37.022Z,31.42
2023-04-09T10:21:17.358Z,31.30
2023-04-09T10:23:48.252Z,31.83
2023-04-09T10:26:17.957Z,28.02
2023-04-09T10:28:45.875Z,30.50
2023-04-09T10:31:14.566Z,26.23
2023-04-09T10:33:44.211Z,30.27
2023-04-09T10:36:12.899Z,29.48
2023-04-09T10:38:45.522Z,30.85
2023-04-09T10:41:22.752Z,26.42
2023-04-09T10:43:50.534Z,27.80
2023-04-09T10:46:34.741Z,28.60
2023-04-09T10:49:20.816Z,28.30
2023-04-09T10:52:01.752Z,28.20
2023-04-09T10:54:35.539Z,25.55
2023-04-09T10:57:09.229Z,26.95
2023-04-09T10:59:57.005Z,33.20
2023-04-09T11:02:40.569Z,30.60
2023-04-09T11:05:25.169Z,29.85
2023-04-09T11:08:03.490Z,25.98
2023-04-09T11:10:32.157Z,27.77
2023-04-09T11:13:00.713Z,26.02
2023-04-09T11:15:28.974Z,25.73
2023-04-09T11:17:57.679Z,27.73
2023-04-09T11:20:26.432Z,22.38
2023-04-09T11:22:56.046Z,29.90
2023-04-09T11:25:26.371Z,29.58
2023-04-09T11:27:54.395Z,25.08
2023-04-09T11:30:22.830Z,27.98
2023-04-09T11:32:51.254Z,30.67
2023-04-09T11:35:21.486Z,24.42
2023-04-09T11:37:50.362Z,24.25
2023-04-09T11:40:26.608Z,24.75
2023-04-09T11:42:55.341Z,22.08
2023-04-09T11:45:26.527Z,24.45
2023-04-09T11:47:54.505Z,23.50
2023-04-09T11:50:22.705Z,30.52
2023-04-09T11:52:50.638Z,28.02
2023-04-09T11:55:29.527Z,24.63
2023-04-09T11:58:01.253Z,24.33
2023-04-09T12:00:29.453Z,24.77
2023-04-09T12:03:03.961Z,25.10
2023-04-09T12:05:33.717Z,24.20
2023-04-09T12:08:10.883Z,21.48
2023-04-09T12:10:38.933Z,22.50
2023-04-09T12:13:10.463Z,23.25
2023-04-09T12:15:41.271Z,22.40
2023-04-09T12:18:10.430Z,20.42
2023-04-09T12:20:39.978Z,21.43
2023-04-09T12:23:08.743Z,22.17
2023-04-09T12:25:38.057Z,24.50
2023-04-09T12:28:07.069Z,21.20
2023-04-09T12:30:35.467Z,22.47
2023-04-09T12:33:04.135Z,20.70
2023-04-09T12:35:32.009Z,26.85
2023-04-09T12:37:59.622Z,19.40
2023-04-09T12:40:30.752Z,22.45
2023-04-09T12:42:58.272Z,16.92
2023-04-09T12:45:25.959Z,21.15
2023-04-09T12:47:53.571Z,22.70
2023-04-09T12:50:21.135Z,20.27
2023-04-09T12:52:48.788Z,19.92
2023-04-09T12:55:16.717Z,16.40
2023-04-09T12:57:46.980Z,18.48
2023-04-09T13:00:15.620Z,20.25
2023-04-09T13:02:43.330Z,21.98
2023-04-09T13:05:12.207Z,17.65
2023-04-09T13:07:42.868Z,16.52
2023-04-09T13:10:11.159Z,17.95
2023-04-09T13:12:38.784Z,21.60
2023-04-09T13:15:07.188Z,19.08
2023-04-09T13:17:35.028Z,19.73
2023-04-09T13:20:03.494Z,18.67
2023-04-09T13:22:31.064Z,18.85
2023-04-09T13:24:58.589Z,17.52
2023-04-09T13:27:26.532Z,16.85
2023-04-09T13:29:54.079Z,16.98
2023-04-09T13:32:24.237Z,18.30
2023-04-09T13:34:53.730Z,21.40
2023-04-09T13:37:21.300Z,19.08
2023-04-09T13:39:49.487Z,19.92
2023-04-09T13:42:17.779Z,19.95
2023-04-09T13:44:45.619Z,20.88
2023-04-09T13:47:14.251Z,19.13
2023-04-09T13:49:42.897Z,17.88
2023-04-09T13:52:11.724Z,21.58
2023-04-09T13:54:39.255Z,23.80
2023-04-09T13:57:07.047Z,21.45
2023-04-09T13:59:34.796Z,16.95
2023-04-09T14:02:02.407Z,19.73
2023-04-09T14:04:30.448Z,20.95
2023-04-09T14:06:58.239Z,19.90
2023-04-09T14:09:25.904Z,17.55
2023-04-09T14:11:55.115Z,19.35
2023-04-09T14:14:22.653Z,19.50
2023-04-09T14:16:50.487Z,16.88
2023-04-09T14:19:18.130Z,13.80
2023-04-09T14:21:45.713Z,22.05
2023-04-09T14:24:13.721Z,21.15
2023-04-09T14:26:41.254Z,19.15
2023-04-09T14:29:08.774Z,19.30
2023-04-09T14:31:36.260Z,22.17
2023-04-09T14:34:04.040Z,21.92
2023-04-09T14:36:32.275Z,22.25
2023-04-09T14:39:00.213Z,18.95
2023-04-09T14:41:28.150Z,23.13
2023-04-09T14:43:55.769Z,21.58
2023-04-09T14:46:23.517Z,21.02
2023-04-09T14:48:51.411Z,23.48
2023-04-09T14:51:19.126Z,18.58
2023-04-09T14:53:47.508Z,21.45
2023-04-09T14:56:15.099Z,23.27
2023-04-09T14:58:42.832Z,22.33
2023-04-09T15:01:10.604Z,25.92
2023-04-09T15:03:38.440Z,19.92
2023-04-09T15:06:06.829Z,20.67
2023-04-09T15:08:34.364Z,24.27
2023-04-09T15:11:01.954Z,19.38
2023-04-09T15:13:29.611Z,22.42
2023-04-09T15:15:57.213Z,20.35
2023-04-09T15:18:24.861Z,22.38
2023-04-09T15:20:52.310Z,22.83
2023-04-09T15:23:19.890Z,24.48
2023-04-09T15:25:47.467Z,21.00
2023-04-09T15:28:17.776Z,21.60
2023-04-09T15:30:45.482Z,19.42
2023-04-09T15:33:16.541Z,21.85
2023-04-09T15:35:44.204Z,24.42
2023-04-09T15:38:11.929Z,20.77
2023-04-09T15:40:42.661Z,23.67
2023-04-09T15:43:10.330Z,17.55
2023-04-09T15:45:37.863Z,24.05
2023-04-09T15:48:05.749Z,25.48
2023-04-09T15:50:34.659Z,22.35
2023-04-09T15:53:02.355Z,21.85
2023-04-09T15:55:29.879Z,21.10
2023-04-09T15:57:57.458Z,19.75
2023-04-09T16:00:25.026Z,22.52
2023-04-09T16:02:53.387Z,22.95
2023-04-09T16:05:21.076Z,19.80
2023-04-09T16:07:51.817Z,20.38
2023-04-09T16:10:19.852Z,22.05
2023-04-09T16:12:47.420Z,20.67
2023-04-09T16:15:14.980Z,19.50
2023-04-09T16:17:42.567Z,18.98
2023-04-09T16:20:10.422Z,22.90
2023-04-09T16:22:37.939Z,19.80
2023-04-09T16:25:06.108Z,18.02
2023-04-09T16:27:33.608Z,18.80
2023-04-09T16:30:01.904Z,17.30
2023-04-09T16:32:29.645Z,21.42
2023-04-09T16:35:00.574Z,15.55
2023-04-09T16:37:29.295Z,15.98
2023-04-09T16:39:57.432Z,22.55
2023-04-09T16:42:27.329Z,16.95
2023-04-09T16:44:54.895Z,17.88
2023-04-09T16:47:22.472Z,16.80
2023-04-09T16:49:50.008Z,14.75
2023-04-09T16:52:17.595Z,14.07
2023-04-09T16:54:45.417Z,13.35
2023-04-09T16:57:16.517Z,12.27
2023-04-09T16:59:45.201Z,13.52
2023-04-09T17:02:12.755Z,15.35
2023-04-09T17:04:40.613Z,16.15
2023-04-09T17:07:08.378Z,14.80
2023-04-09T17:09:35.933Z,14.05
2023-04-09T17:12:03.566Z,13.25
2023-04-09T17:14:31.758Z,18.13
2023-04-09T17:16:59.278Z,16.90
2023-04-09T17:19:26.897Z,12.30
2023-04-09T17:21:54.390Z,11.80
2023-04-09T17:24:22.167Z,11.45
2023-04-09T17:26:51.908Z,10.82
2023-04-09T17:29:19.490Z,13.43
2023-04-09T17:31:50.764Z,13.43
2023-04-09T17:34:18.366Z,12.15
2023-04-09T17:36:50.358Z,11.32
2023-04-09T17:39:18.164Z,11.07
2023-04-09T17:41:45.814Z,10.27
2023-04-09T17:44:13.565Z,8.43
2023-04-09T17:46:41.143Z,12.45
2023-04-09T17:49:09.667Z,12.05
2023-04-09T17:51:37.198Z,12.50
2023-04-09T17:54:04.919Z,10.63
2023-04-09T17:56:35.399Z,11.43
2023-04-09T17:59:02.927Z,13.00
2023-04-09T18:01:30.731Z,12.95
2023-04-09T18:03:59.775Z,15.63
2023-04-09T18:06:27.850Z,14.63
2023-04-09T18:08:55.352Z,8.90
2023-04-09T18:11:23.693Z,9.57
2023-04-09T18:13:51.439Z,13.23
2023-04-09T18:16:20.773Z,11.63
2023-04-09T18:18:49.145Z,11.88
2023-04-09T18:21:16.629Z,9.93
2023-04-09T18:23:44.161Z,11.18
2023-04-09T18:26:11.702Z,7.57
2023-04-09T18:28:39.534Z,13.73
2023-04-09T18:31:07.188Z,6.82
2023-04-09T18:33:34.834Z,13.48
2023-04-09T18:36:02.758Z,13.13
2023-04-09T18:38:30.422Z,10.45
2023-04-09T18:40:58.332Z,7.90
2023-04-09T18:43:26.293Z,10.05
2023-04-09T18:45:53.928Z,6.47
2023-04-09T18:48:21.509Z,7.03
2023-04-09T18:50:49.237Z,8.05
2023-04-09T18:53:16.782Z,8.60
2023-04-09T18:55:44.301Z,7.03
2023-04-09T18:58:15.750Z,7.70
2023-04-09T19:00:43.667Z,8.45
2023-04-09T19:03:12.267Z,10.07
2023-04-09T19:05:40.415Z,9.45
2023-04-09T19:08:08.219Z,11.18
2023-04-09T19:10:39.826Z,10.73
2023-04-09T19:13:07.719Z,11.77
2023-04-09T19:15:38.565Z,9.55
2023-04-09T19:18:06.811Z,7.57
2023-04-09T19:20:34.431Z,9.68
2023-04-09T19:23:05.715Z,8.55
2023-04-09T19:25:34.218Z,10.88
2023-04-09T19:28:01.965Z,7.10
2023-04-09T19:30:29.623Z,8.35
2023-04-09T19:32:57.435Z,9.30
2023-04-09T19:35:25.339Z,8.00
2023-04-09T19:37:53.316Z,9.57
2023-04-09T19:40:23.332Z,8.68
2023-04-09T19:42:50.813Z,11.13
2023-04-09T19:45:18.454Z,11.02
2023-04-09T19:47:46.187Z,6.13
2023-04-09T19:50:14.351Z,6.80
2023-04-09T19:52:43.577Z,8.05
2023-04-09T19:55:11.110Z,8.73
2023-04-09T19:57:40.670Z,9.35
2023-04-09T20:00:08.794Z,7.55
2023-04-09T20:02:41.733Z,7.75
2023-04-09T20:05:12.894Z,5.63
2023-04-09T20:07:40.901Z,6.85
2023-04-09T20:10:10.422Z,7.10
2023-04-09T20:12:37.963Z,14.13
2023-04-09T20:15:09.945Z,7.20
2023-04-09T20:17:38.545Z,7.05
2023-04-09T20:20:07.135Z,9.65
2023-04-09T20:22:34.597Z,6.68
2023-04-09T20:25:06.924Z,12.13
2023-04-09T20:27:34.747Z,8.27
2023-04-09T20:30:02.301Z,11.30
2023-04-09T20:32:30.212Z,7.45
2023-04-09T20:34:57.963Z,10.27
2023-04-09T20:37:25.604Z,9.85
2023-04-09T20:39:53.061Z,9.05
2023-04-09T20:42:20.588Z,11.98
2023-04-09T20:44:48.146Z,7.65
2023-04-09T20:47:16.347Z,8.75
2023-04-09T20:49:47.665Z,11.82
2023-04-09T20:52:15.453Z,12.43
2023-04-09T20:54:46.172Z,13.55
2023-04-09T20:57:16.386Z,12.18
2023-04-09T21:02:15.059Z,10.10
2023-04-09T21:04:43.316Z,15.02
2023-04-09T21:07:10.867Z,11.68
2023-04-09T21:09:40.675Z,11.60
2023-04-09T21:12:08.569Z,8.45
2023-04-09T21:14:36.196Z,11.55
2023-04-09T21:17:04.083Z,8.68
2023-04-09T21:19:31.680Z,10.90
2023-04-09T21:21:59.331Z,9.18
2023-04-09T21:24:27.806Z,9.02
2023-04-09T21:26:55.619Z,9.80
2023-04-09T21:29:23.153Z,12.15
2023-04-09T21:31:50.713Z,8.63
2023-04-09T21:34:18.251Z,11.30
2023-04-09T21:36:46.336Z,11.40
2023-04-09T21:39:16.980Z,10.50
2023-04-09T21:41:45.033Z,12.98
2023-04-09T21:44:13.578Z,12.23
2023-04-09T21:46:42.514Z,10.27
2023-04-09T21:49:10.233Z,13.45
2023-04-09T21:51:39.008Z,17.98
2023-04-09T21:54:08.521Z,13.27
2023-04-09T21:56:36.864Z,11.13
2023-04-09T21:59:05.740Z,13.75
2023-04-09T22:01:34.905Z,13.35
2023-04-09T22:04:03.089Z,13.15
2023-04-09T22:06:31.106Z,13.50
2023-04-09T22:08:58.872Z,17.63
2023-04-09T22:11:28.098Z,15.70
2023-04-09T22:16:25.542Z,13.38
2023-04-09T22:18:54.214Z,13.40
2023-04-09T22:21:22.439Z,14.00
2023-04-09T22:23:50.083Z,19.13
2023-04-09T22:26:17.574Z,16.85
2023-04-09T22:28:45.326Z,14.02
2023-04-09T22:31:12.883Z,17.38
2023-04-09T22:33:40.996Z,14.85
2023-04-09T22:36:08.774Z,18.90
2023-04-09T22:38:36.891Z,18.25
2023-04-09T22:41:04.616Z,20.50
2023-04-09T22:43:32.242Z,17.17
2023-04-09T22:46:03.404Z,18.50
2023-04-09T22:48:31.072Z,18.95
2023-04-09T22:50:59.013Z,19.77
2023-04-09T22:53:26.769Z,18.55
2023-04-09T22:55:54.931Z,19.42
2023-04-09T22:58:22.596Z,20.13
2023-04-09T23:00:50.671Z,16.52
2023-04-09T23:03:18.351Z,15.95
2023-04-09T23:05:46.710Z,15.93
2023-04-09T23:08:14.975Z,19.35
2023-04-09T23:10:42.559Z,18.50
2023-04-09T23:13:13.813Z,17.63
2023-04-09T23:15:41.436Z,17.05
2023-04-09T23:18:09.349Z,21.60
2023-04-09T23:20:37.109Z,20.05
2023-04-09T23:23:04.848Z,19.85
2023-04-09T23:25:32.408Z,21.08
2023-04-09T23:28:00.042Z,17.80
2023-04-09T23:30:28.063Z,19.85
2023-04-09T23:32:57.552Z,21.13
2023-04-09T23:35:25.356Z,18.83
2023-04-09T23:37:52.926Z,17.85
2023-04-09T23:40:20.789Z,19.80
2023-04-09T23:42:49.037Z,17.25
2023-04-09T23:45:16.616Z,18.33
2023-04-09T23:47:44.173Z,17.75
2023-04-09T23:50:11.805Z,19.95
2023-04-09T23:52:47.853Z,20.00
2023-04-09T23:55:18.920Z,22.08
2023-04-09T23:57:46.511Z,21.20
